sensor_id;sensor_type;location;lat;lon;timestamp;pressure;altitude;pressure_sealevel;temperature;humidity
34586;BME280;20816;50.950;11.108;2022-10-31T00:01:11;98855.03;;;12.95;95.67
34586;BME280;20816;50.950;11.108;2022-10-31T00:03:38;98858.78;;;12.85;96.38
34586;BME280;20816;50.950;11.108;2022-10-31T00:06:05;98862.50;;;12.78;96.90
34586;BME280;20816;50.950;11.108;2022-10-31T00:08:31;98860.97;;;12.71;97.33
34586;BME280;20816;50.950;11.108;2022-10-31T00:10:58;98865.47;;;12.66;97.97
34586;BME280;20816;50.950;11.108;2022-10-31T00:13:25;98863.06;;;12.90;98.46
34586;BME280;20816;50.950;11.108;2022-10-31T00:15:51;98860.03;;;13.04;96.82
34586;BME280;20816;50.950;11.108;2022-10-31T00:18:18;98867.13;;;13.02;96.93
34586;BME280;20816;50.950;11.108;2022-10-31T00:20:45;98868.16;;;12.97;96.49
34586;BME280;20816;50.950;11.108;2022-10-31T00:23:11;98872.91;;;12.84;97.08
34586;BME280;20816;50.950;11.108;2022-10-31T00:25:39;98872.19;;;12.77;97.46
34586;BME280;20816;50.950;11.108;2022-10-31T00:28:07;98875.03;;;12.70;97.64
34586;BME280;20816;50.950;11.108;2022-10-31T00:30:34;98875.97;;;12.67;98.78
34586;BME280;20816;50.950;11.108;2022-10-31T00:33:03;98874.63;;;12.85;98.65
34586;BME280;20816;50.950;11.108;2022-10-31T00:35:30;98876.81;;;13.02;98.38
34586;BME280;20816;50.950;11.108;2022-10-31T00:37:57;98886.09;;;12.84;98.62
34586;BME280;20816;50.950;11.108;2022-10-31T00:40:23;98883.78;;;12.72;99.53
34586;BME280;20816;50.950;11.108;2022-10-31T00:42:50;98880.50;;;12.62;99.72
34586;BME280;20816;50.950;11.108;2022-10-31T00:45:17;98886.03;;;12.51;99.90
34586;BME280;20816;50.950;11.108;2022-10-31T00:47:44;98881.09;;;12.39;100.00
34586;BME280;20816;50.950;11.108;2022-10-31T00:50:10;98883.88;;;12.33;100.00
34586;BME280;20816;50.950;11.108;2022-10-31T00:52:37;98887.56;;;12.26;100.00
34586;BME280;20816;50.950;11.108;2022-10-31T00:55:04;98874.38;;;12.26;100.00
34586;BME280;20816;50.950;11.108;2022-10-31T00:57:30;98885.97;;;12.19;100.00
34586;BME280;20816;50.950;11.108;2022-10-31T00:59:57;98882.69;;;12.09;100.00
34586;BME280;20816;50.950;11.108;2022-10-31T01:02:24;98880.88;;;12.11;100.00
34586;BME280;20816;50.950;11.108;2022-10-31T01:04:50;98877.78;;;12.31;100.00
34586;BME280;20816;50.950;11.108;2022-10-31T01:07:17;98880.84;;;12.48;100.00
34586;BME280;20816;50.950;11.108;2022-10-31T01:09:44;98882.94;;;12.70;100.00
34586;BME280;20816;50.950;11.108;2022-10-31T01:12:10;98870.84;;;12.95;100.00
34586;BME280;20816;50.950;11.108;2022-10-31T01:14:37;98879.25;;;13.09;99.11
34586;BME280;20816;50.950;11.108;2022-10-31T01:17:03;98875.28;;;13.26;98.32
34586;BME280;20816;50.950;11.108;2022-10-31T01:19:30;98872.84;;;13.20;98.08
34586;BME280;20816;50.950;11.108;2022-10-31T01:21:57;98875.53;;;13.16;97.92
34586;BME280;20816;50.950;11.108;2022-10-31T01:24:23;98872.06;;;13.14;97.87
34586;BME280;20816;50.950;11.108;2022-10-31T01:26:50;98876.59;;;13.09;98.59
34586;BME280;20816;50.950;11.108;2022-10-31T01:29:17;98882.63;;;13.14;98.04
34586;BME280;20816;50.950;11.108;2022-10-31T01:31:43;98882.53;;;13.17;98.18
34586;BME280;20816;50.950;11.108;2022-10-31T01:34:15;98875.78;;;13.07;98.25
34586;BME280;20816;50.950;11.108;2022-10-31T01:36:44;98869.84;;;12.99;98.90
34586;BME280;20816;50.950;11.108;2022-10-31T01:39:13;98876.03;;;12.98;98.92
34586;BME280;20816;50.950;11.108;2022-10-31T01:41:49;98874.31;;;12.97;98.79
34586;BME280;20816;50.950;11.108;2022-10-31T01:49:43;98862.94;;;12.62;100.00
34586;BME280;20816;50.950;11.108;2022-10-31T01:52:18;98866.50;;;12.60;100.00
34586;BME280;20816;50.950;11.108;2022-10-31T01:55:18;98868.88;;;12.35;100.00
34586;BME280;20816;50.950;11.108;2022-10-31T01:57:52;98881.50;;;12.21;100.00
34586;BME280;20816;50.950;11.108;2022-10-31T02:00:20;98880.66;;;12.20;100.00
34586;BME280;20816;50.950;11.108;2022-10-31T02:02:49;98888.72;;;12.13;100.00
34586;BME280;20816;50.950;11.108;2022-10-31T02:05:19;98874.19;;;11.98;100.00
34586;BME280;20816;50.950;11.108;2022-10-31T02:07:55;98885.63;;;11.95;100.00
34586;BME280;20816;50.950;11.108;2022-10-31T02:10:24;98885.09;;;11.78;100.00
34586;BME280;20816;50.950;11.108;2022-10-31T02:12:56;98885.22;;;11.72;100.00
34586;BME280;20816;50.950;11.108;2022-10-31T02:15:26;98891.34;;;11.74;100.00
34586;BME280;20816;50.950;11.108;2022-10-31T02:17:53;98886.22;;;11.68;100.00
34586;BME280;20816;50.950;11.108;2022-10-31T02:20:21;98876.56;;;11.68;100.00
34586;BME280;20816;50.950;11.108;2022-10-31T02:25:51;98889.75;;;11.67;100.00
34586;BME280;20816;50.950;11.108;2022-10-31T02:28:59;98886.13;;;11.71;100.00
34586;BME280;20816;50.950;11.108;2022-10-31T02:31:43;98883.34;;;11.80;100.00
34586;BME280;20816;50.950;11.108;2022-10-31T02:34:21;98882.31;;;11.87;100.00
34586;BME280;20816;50.950;11.108;2022-10-31T02:37:12;98884.31;;;12.13;100.00
34586;BME280;20816;50.950;11.108;2022-10-31T02:48:33;98875.31;;;12.23;100.00
34586;BME280;20816;50.950;11.108;2022-10-31T02:51:03;98873.47;;;12.27;100.00
34586;BME280;20816;50.950;11.108;2022-10-31T02:53:34;98875.81;;;12.39;100.00
34586;BME280;20816;50.950;11.108;2022-10-31T02:56:05;98880.47;;;12.28;100.00
34586;BME280;20816;50.950;11.108;2022-10-31T02:58:37;98873.69;;;12.18;100.00
34586;BME280;20816;50.950;11.108;2022-10-31T03:01:10;98887.09;;;12.09;100.00
34586;BME280;20816;50.950;11.108;2022-10-31T03:09:21;98887.09;;;12.09;100.00
34586;BME280;20816;50.950;11.108;2022-10-31T03:11:58;98890.31;;;12.20;100.00
34586;BME280;20816;50.950;11.108;2022-10-31T03:17:05;98893.31;;;12.04;100.00
34586;BME280;20816;50.950;11.108;2022-10-31T03:19:39;98892.56;;;11.99;100.00
34586;BME280;20816;50.950;11.108;2022-10-31T03:22:07;98896.16;;;11.95;100.00
34586;BME280;20816;50.950;11.108;2022-10-31T03:24:39;98894.44;;;11.94;100.00
34586;BME280;20816;50.950;11.108;2022-10-31T03:27:07;98906.88;;;11.89;100.00
34586;BME280;20816;50.950;11.108;2022-10-31T03:29:37;98913.91;;;11.87;100.00
34586;BME280;20816;50.950;11.108;2022-10-31T03:32:10;98907.78;;;11.87;100.00
34586;BME280;20816;50.950;11.108;2022-10-31T03:34:41;98911.34;;;11.84;100.00
34586;BME280;20816;50.950;11.108;2022-10-31T03:37:13;98918.47;;;11.77;100.00
34586;BME280;20816;50.950;11.108;2022-10-31T03:39:42;98906.31;;;11.72;100.00
34586;BME280;20816;50.950;11.108;2022-10-31T03:42:21;98915.19;;;11.68;100.00
34586;BME280;20816;50.950;11.108;2022-10-31T03:45:16;98919.63;;;11.66;100.00
34586;BME280;20816;50.950;11.108;2022-10-31T03:47:45;98924.88;;;11.66;100.00
34586;BME280;20816;50.950;11.108;2022-10-31T03:50:13;98920.50;;;11.66;100.00
34586;BME280;20816;50.950;11.108;2022-10-31T03:52:45;98928.44;;;11.63;100.00
34586;BME280;20816;50.950;11.108;2022-10-31T03:55:19;98929.44;;;11.58;100.00
34586;BME280;20816;50.950;11.108;2022-10-31T03:57:57;98930.38;;;11.54;100.00
34586;BME280;20816;50.950;11.108;2022-10-31T04:00:26;98929.59;;;11.50;100.00
34586;BME280;20816;50.950;11.108;2022-10-31T04:02:58;98938.38;;;11.50;100.00
34586;BME280;20816;50.950;11.108;2022-10-31T04:05:29;98935.78;;;11.47;100.00
34586;BME280;20816;50.950;11.108;2022-10-31T04:07:58;98934.00;;;11.49;100.00
34586;BME280;20816;50.950;11.108;2022-10-31T04:10:27;98933.03;;;11.54;100.00
34586;BME280;20816;50.950;11.108;2022-10-31T04:13:04;98940.03;;;11.55;100.00
34586;BME280;20816;50.950;11.108;2022-10-31T04:15:34;98930.50;;;11.49;100.00
34586;BME280;20816;50.950;11.108;2022-10-31T04:18:04;98937.66;;;11.42;100.00
34586;BME280;20816;50.950;11.108;2022-10-31T04:20:40;98935.06;;;11.39;100.00
34586;BME280;20816;50.950;11.108;2022-10-31T04:25:42;98942.03;;;11.42;100.00
34586;BME280;20816;50.950;11.108;2022-10-31T04:28:09;98938.41;;;11.47;100.00
34586;BME280;20816;50.950;11.108;2022-10-31T04:30:35;98939.13;;;11.56;100.00
34586;BME280;20816;50.950;11.108;2022-10-31T04:33:02;98942.59;;;11.58;100.00
34586;BME280;20816;50.950;11.108;2022-10-31T04:35:29;98936.53;;;11.54;100.00
34586;BME280;20816;50.950;11.108;2022-10-31T04:37:55;98941.91;;;11.48;100.00
34586;BME280;20816;50.950;11.108;2022-10-31T04:40:22;98939.06;;;11.59;100.00
34586;BME280;20816;50.950;11.108;2022-10-31T04:42:48;98940.91;;;11.54;100.00
34586;BME280;20816;50.950;11.108;2022-10-31T04:45:15;98941.66;;;11.60;100.00
34586;BME280;20816;50.950;11.108;2022-10-31T04:47:46;98946.06;;;11.60;100.00
34586;BME280;20816;50.950;11.108;2022-10-31T04:50:13;98943.41;;;11.61;100.00
34586;BME280;20816;50.950;11.108;2022-10-31T04:52:44;98944.22;;;11.65;100.00
34586;BME280;20816;50.950;11.108;2022-10-31T04:55:11;98944.34;;;11.59;100.00
34586;BME280;20816;50.950;11.108;2022-10-31T05:00:11;98939.66;;;11.71;100.00
34586;BME280;20816;50.950;11.108;2022-10-31T05:02:43;98929.97;;;11.75;100.00
34586;BME280;20816;50.950;11.108;2022-10-31T05:05:10;98926.41;;;11.76;100.00
34586;BME280;20816;50.950;11.108;2022-10-31T05:07:40;98927.19;;;11.83;100.00
34586;BME280;20816;50.950;11.108;2022-10-31T05:10:08;98925.34;;;11.86;100.00
34586;BME280;20816;50.950;11.108;2022-10-31T05:12:36;98925.44;;;11.83;100.00
34586;BME280;20816;50.950;11.108;2022-10-31T05:15:04;98938.59;;;11.83;100.00
34586;BME280;20816;50.950;11.108;2022-10-31T05:17:31;98917.56;;;11.80;100.00
34586;BME280;20816;50.950;11.108;2022-10-31T05:19:58;98916.78;;;11.75;100.00
34586;BME280;20816;50.950;11.108;2022-10-31T05:22:25;98917.75;;;11.71;100.00
34586;BME280;20816;50.950;11.108;2022-10-31T05:24:51;98933.56;;;11.69;100.00
34586;BME280;20816;50.950;11.108;2022-10-31T05:27:18;98920.41;;;11.69;100.00
34586;BME280;20816;50.950;11.108;2022-10-31T05:29:45;98924.94;;;11.63;100.00
34586;BME280;20816;50.950;11.108;2022-10-31T05:32:11;98923.31;;;11.57;100.00
34586;BME280;20816;50.950;11.108;2022-10-31T05:34:38;98927.00;;;11.47;100.00
34586;BME280;20816;50.950;11.108;2022-10-31T05:37:04;98923.16;;;11.63;100.00
34586;BME280;20816;50.950;11.108;2022-10-31T05:39:31;98929.28;;;11.64;100.00
34586;BME280;20816;50.950;11.108;2022-10-31T05:41:58;98927.47;;;11.67;100.00
34586;BME280;20816;50.950;11.108;2022-10-31T05:44:24;98926.69;;;11.62;100.00
34586;BME280;20816;50.950;11.108;2022-10-31T05:46:51;98933.72;;;11.62;100.00
34586;BME280;20816;50.950;11.108;2022-10-31T05:49:18;98921.59;;;11.55;100.00
34586;BME280;20816;50.950;11.108;2022-10-31T05:51:44;98927.00;;;11.48;100.00
34586;BME280;20816;50.950;11.108;2022-10-31T05:54:11;98927.28;;;11.35;100.00
34586;BME280;20816;50.950;11.108;2022-10-31T05:56:41;98921.09;;;11.36;100.00
34586;BME280;20816;50.950;11.108;2022-10-31T05:59:08;98928.22;;;11.32;100.00
34586;BME280;20816;50.950;11.108;2022-10-31T06:01:34;98924.56;;;11.38;100.00
34586;BME280;20816;50.950;11.108;2022-10-31T06:04:01;98928.31;;;11.26;100.00
34586;BME280;20816;50.950;11.108;2022-10-31T06:06:27;98932.75;;;11.24;100.00
34586;BME280;20816;50.950;11.108;2022-10-31T06:08:54;98931.09;;;11.18;100.00
34586;BME280;20816;50.950;11.108;2022-10-31T06:11:21;98932.69;;;11.27;100.00
34586;BME280;20816;50.950;11.108;2022-10-31T06:13:47;98931.69;;;11.33;100.00
34586;BME280;20816;50.950;11.108;2022-10-31T06:16:14;98929.81;;;11.38;100.00
34586;BME280;20816;50.950;11.108;2022-10-31T06:18:41;98937.56;;;11.45;100.00
34586;BME280;20816;50.950;11.108;2022-10-31T06:21:07;98930.66;;;11.40;100.00
34586;BME280;20816;50.950;11.108;2022-10-31T06:23:35;98935.84;;;11.44;100.00
34586;BME280;20816;50.950;11.108;2022-10-31T06:26:02;98937.56;;;11.45;100.00
34586;BME280;20816;50.950;11.108;2022-10-31T06:28:29;98931.34;;;11.51;100.00
34586;BME280;20816;50.950;11.108;2022-10-31T06:30:55;98941.00;;;11.50;100.00
34586;BME280;20816;50.950;11.108;2022-10-31T06:33:22;98946.47;;;11.38;100.00
34586;BME280;20816;50.950;11.108;2022-10-31T06:35:49;98949.97;;;11.40;100.00
34586;BME280;20816;50.950;11.108;2022-10-31T06:38:15;98948.09;;;11.45;100.00
34586;BME280;20816;50.950;11.108;2022-10-31T06:40:42;98952.59;;;11.40;100.00
34586;BME280;20816;50.950;11.108;2022-10-31T06:43:09;98956.72;;;11.54;100.00
34586;BME280;20816;50.950;11.108;2022-10-31T06:45:37;98956.53;;;11.63;100.00
34586;BME280;20816;50.950;11.108;2022-10-31T06:48:04;98967.06;;;11.63;100.00
34586;BME280;20816;50.950;11.108;2022-10-31T06:50:47;98961.94;;;11.57;100.00
34586;BME280;20816;50.950;11.108;2022-10-31T06:53:13;98957.44;;;11.62;100.00
34586;BME280;20816;50.950;11.108;2022-10-31T06:55:41;98962.66;;;11.63;100.00
34586;BME280;20816;50.950;11.108;2022-10-31T06:58:09;98964.34;;;11.67;100.00
34586;BME280;20816;50.950;11.108;2022-10-31T07:00:36;98967.59;;;11.80;100.00
34586;BME280;20816;50.950;11.108;2022-10-31T07:03:10;98962.22;;;11.86;100.00
34586;BME280;20816;50.950;11.108;2022-10-31T07:05:37;98964.97;;;11.80;100.00
34586;BME280;20816;50.950;11.108;2022-10-31T07:08:07;98967.66;;;11.77;100.00
34586;BME280;20816;50.950;11.108;2022-10-31T07:10:37;98970.28;;;11.77;100.00
34586;BME280;20816;50.950;11.108;2022-10-31T07:13:10;98968.38;;;11.85;100.00
34586;BME280;20816;50.950;11.108;2022-10-31T07:15:38;98968.19;;;11.94;100.00
34586;BME280;20816;50.950;11.108;2022-10-31T07:18:07;98969.72;;;12.04;100.00
34586;BME280;20816;50.950;11.108;2022-10-31T07:20:34;98973.97;;;12.12;100.00
34586;BME280;20816;50.950;11.108;2022-10-31T07:23:01;98972.13;;;12.15;100.00
34586;BME280;20816;50.950;11.108;2022-10-31T07:25:28;98965.66;;;12.30;100.00
34586;BME280;20816;50.950;11.108;2022-10-31T07:27:55;98983.03;;;12.37;100.00
34586;BME280;20816;50.950;11.108;2022-10-31T07:30:22;98981.09;;;12.45;100.00
34586;BME280;20816;50.950;11.108;2022-10-31T07:32:50;98985.19;;;12.58;100.00
34586;BME280;20816;50.950;11.108;2022-10-31T07:35:22;98977.00;;;12.71;100.00
34586;BME280;20816;50.950;11.108;2022-10-31T07:37:50;98982.69;;;12.89;100.00
34586;BME280;20816;50.950;11.108;2022-10-31T07:40:18;98985.00;;;13.02;100.00
34586;BME280;20816;50.950;11.108;2022-10-31T07:42:47;98984.75;;;13.12;100.00
34586;BME280;20816;50.950;11.108;2022-10-31T07:45:16;98992.25;;;13.29;100.00
34586;BME280;20816;50.950;11.108;2022-10-31T07:47:43;98996.16;;;13.47;100.00
34586;BME280;20816;50.950;11.108;2022-10-31T07:50:13;98986.69;;;13.71;100.00
34586;BME280;20816;50.950;11.108;2022-10-31T07:52:40;98989.50;;;13.96;100.00
34586;BME280;20816;50.950;11.108;2022-10-31T07:55:07;98987.03;;;14.19;100.00
34586;BME280;20816;50.950;11.108;2022-10-31T07:57:34;98992.50;;;14.43;100.00
34586;BME280;20816;50.950;11.108;2022-10-31T08:00:01;98986.50;;;14.66;100.00
34586;BME280;20816;50.950;11.108;2022-10-31T08:02:27;98978.41;;;14.97;100.00
34586;BME280;20816;50.950;11.108;2022-10-31T08:04:54;98982.47;;;15.33;100.00
34586;BME280;20816;50.950;11.108;2022-10-31T08:07:26;98978.78;;;15.64;99.38
34586;BME280;20816;50.950;11.108;2022-10-31T08:09:53;98976.81;;;15.92;97.87
34586;BME280;20816;50.950;11.108;2022-10-31T08:12:20;98976.41;;;16.26;96.35
34586;BME280;20816;50.950;11.108;2022-10-31T08:14:47;98977.06;;;16.55;94.92
34586;BME280;20816;50.950;11.108;2022-10-31T08:17:14;98978.53;;;16.84;94.58
34586;BME280;20816;50.950;11.108;2022-10-31T08:19:41;98982.03;;;17.06;92.38
34586;BME280;20816;50.950;11.108;2022-10-31T08:22:07;98978.59;;;17.25;93.43
34586;BME280;20816;50.950;11.108;2022-10-31T08:24:34;98984.91;;;17.43;92.52
34586;BME280;20816;50.950;11.108;2022-10-31T08:27:00;98992.69;;;17.47;88.74
34586;BME280;20816;50.950;11.108;2022-10-31T08:29:27;98988.25;;;17.48;88.51
34586;BME280;20816;50.950;11.108;2022-10-31T08:31:54;98982.97;;;17.66;87.82
34586;BME280;20816;50.950;11.108;2022-10-31T08:34:20;98982.00;;;17.69;88.25
34586;BME280;20816;50.950;11.108;2022-10-31T08:36:47;98981.13;;;17.69;89.20
34586;BME280;20816;50.950;11.108;2022-10-31T08:39:13;98974.34;;;17.82;88.63
34586;BME280;20816;50.950;11.108;2022-10-31T08:41:40;98977.53;;;17.90;89.30
34586;BME280;20816;50.950;11.108;2022-10-31T08:44:07;98977.34;;;18.13;88.14
34586;BME280;20816;50.950;11.108;2022-10-31T08:46:33;98977.75;;;18.04;88.46
34586;BME280;20816;50.950;11.108;2022-10-31T08:49:00;98968.72;;;18.27;86.54
34586;BME280;20816;50.950;11.108;2022-10-31T08:51:27;98971.28;;;18.29;85.48
34586;BME280;20816;50.950;11.108;2022-10-31T08:53:53;98969.28;;;18.34;84.80
34586;BME280;20816;50.950;11.108;2022-10-31T08:56:20;98965.66;;;18.54;84.36
34586;BME280;20816;50.950;11.108;2022-10-31T08:58:48;98963.44;;;18.82;83.45
34586;BME280;20816;50.950;11.108;2022-10-31T09:01:15;98960.13;;;18.94;83.70
34586;BME280;20816;50.950;11.108;2022-10-31T09:03:42;98956.44;;;18.80;83.21
34586;BME280;20816;50.950;11.108;2022-10-31T09:06:09;98968.19;;;18.75;83.22
34586;BME280;20816;50.950;11.108;2022-10-31T09:08:35;98960.28;;;18.91;83.19
34586;BME280;20816;50.950;11.108;2022-10-31T09:11:03;98955.34;;;18.84;82.58
34586;BME280;20816;50.950;11.108;2022-10-31T09:13:30;98957.09;;;19.02;82.97
34586;BME280;20816;50.950;11.108;2022-10-31T09:15:57;98954.03;;;19.27;81.16
34586;BME280;20816;50.950;11.108;2022-10-31T09:18:25;98949.16;;;19.35;80.85
34586;BME280;20816;50.950;11.108;2022-10-31T09:20:57;98951.44;;;19.60;80.22
34586;BME280;20816;50.950;11.108;2022-10-31T09:23:24;98952.16;;;19.64;78.90
34586;BME280;20816;50.950;11.108;2022-10-31T09:25:52;98952.06;;;19.65;78.74
34586;BME280;20816;50.950;11.108;2022-10-31T09:28:21;98950.81;;;19.55;79.04
34586;BME280;20816;50.950;11.108;2022-10-31T09:30:51;98952.22;;;19.79;79.45
34586;BME280;20816;50.950;11.108;2022-10-31T09:33:18;98949.63;;;19.94;78.55
34586;BME280;20816;50.950;11.108;2022-10-31T09:35:45;98953.41;;;19.90;78.71
34586;BME280;20816;50.950;11.108;2022-10-31T09:38:17;98957.81;;;19.91;79.26
34586;BME280;20816;50.950;11.108;2022-10-31T09:46:34;98945.38;;;20.38;76.23
34586;BME280;20816;50.950;11.108;2022-10-31T09:51:55;98946.78;;;20.77;75.97
34586;BME280;20816;50.950;11.108;2022-10-31T09:54:36;98942.50;;;20.89;73.83
34586;BME280;20816;50.950;11.108;2022-10-31T09:57:05;98936.22;;;20.90;73.79
34586;BME280;20816;50.950;11.108;2022-10-31T09:59:39;98936.84;;;20.79;73.95
34586;BME280;20816;50.950;11.108;2022-10-31T10:02:13;98937.06;;;20.90;75.10
34586;BME280;20816;50.950;11.108;2022-10-31T10:05:02;98929.09;;;20.75;73.30
34586;BME280;20816;50.950;11.108;2022-10-31T10:07:59;98922.66;;;20.93;73.97
34586;BME280;20816;50.950;11.108;2022-10-31T10:10:36;98918.53;;;21.17;73.83
34586;BME280;20816;50.950;11.108;2022-10-31T10:13:33;98921.38;;;21.30;73.57
34586;BME280;20816;50.950;11.108;2022-10-31T10:16:42;98925.50;;;21.64;73.34
34586;BME280;20816;50.950;11.108;2022-10-31T10:22:22;98911.09;;;21.52;73.27
34586;BME280;20816;50.950;11.108;2022-10-31T10:33:11;98918.00;;;20.96;74.92
34586;BME280;20816;50.950;11.108;2022-10-31T10:35:43;98907.38;;;21.25;74.04
34586;BME280;20816;50.950;11.108;2022-10-31T10:40:42;98899.13;;;21.30;74.43
34586;BME280;20816;50.950;11.108;2022-10-31T10:43:20;98902.41;;;21.19;73.84
34586;BME280;20816;50.950;11.108;2022-10-31T10:51:25;98892.44;;;21.07;75.22
34586;BME280;20816;50.950;11.108;2022-10-31T10:59:22;98894.63;;;20.70;76.14
34586;BME280;20816;50.950;11.108;2022-10-31T11:01:51;98885.19;;;20.49;77.45
34586;BME280;20816;50.950;11.108;2022-10-31T11:04:33;98877.94;;;20.51;78.15
34586;BME280;20816;50.950;11.108;2022-10-31T11:07:09;98878.13;;;20.48;78.22
34586;BME280;20816;50.950;11.108;2022-10-31T11:09:37;98875.34;;;20.33;78.29
34586;BME280;20816;50.950;11.108;2022-10-31T11:12:08;98866.06;;;20.25;77.80
34586;BME280;20816;50.950;11.108;2022-10-31T11:14:52;98868.63;;;20.26;78.19
34586;BME280;20816;50.950;11.108;2022-10-31T11:22:30;98860.91;;;20.22;77.29
34586;BME280;20816;50.950;11.108;2022-10-31T11:24:57;98847.72;;;20.19;78.03
34586;BME280;20816;50.950;11.108;2022-10-31T11:27:25;98841.41;;;20.35;77.94
34586;BME280;20816;50.950;11.108;2022-10-31T11:29:52;98840.16;;;19.95;78.89
34586;BME280;20816;50.950;11.108;2022-10-31T11:32:27;98837.84;;;20.05;78.63
34586;BME280;20816;50.950;11.108;2022-10-31T11:34:56;98833.50;;;19.86;79.92
34586;BME280;20816;50.950;11.108;2022-10-31T11:37:31;98833.59;;;19.69;81.11
34586;BME280;20816;50.950;11.108;2022-10-31T11:40:00;98821.75;;;19.42;82.85
34586;BME280;20816;50.950;11.108;2022-10-31T11:42:36;98828.94;;;19.57;80.85
34586;BME280;20816;50.950;11.108;2022-10-31T11:45:31;98826.88;;;19.29;82.57
34586;BME280;20816;50.950;11.108;2022-10-31T11:47:56;98830.69;;;19.41;82.24
34586;BME280;20816;50.950;11.108;2022-10-31T11:50:38;98823.28;;;19.46;82.77
34586;BME280;20816;50.950;11.108;2022-10-31T11:53:15;98824.75;;;19.36;82.75
34586;BME280;20816;50.950;11.108;2022-10-31T11:55:42;98815.22;;;19.47;83.53
34586;BME280;20816;50.950;11.108;2022-10-31T11:58:24;98817.53;;;19.53;83.50
34586;BME280;20816;50.950;11.108;2022-10-31T12:00:54;98814.88;;;19.53;83.52
34586;BME280;20816;50.950;11.108;2022-10-31T12:03:37;98822.50;;;19.77;83.25
34586;BME280;20816;50.950;11.108;2022-10-31T12:08:36;98813.06;;;19.54;84.09
34586;BME280;20816;50.950;11.108;2022-10-31T12:19:30;98799.78;;;19.70;84.23
34586;BME280;20816;50.950;11.108;2022-10-31T12:24:54;98785.44;;;19.72;84.88
34586;BME280;20816;50.950;11.108;2022-10-31T12:30:13;98781.38;;;19.65;85.62
34586;BME280;20816;50.950;11.108;2022-10-31T12:33:15;98781.38;;;19.65;86.03
34586;BME280;20816;50.950;11.108;2022-10-31T12:38:46;98771.06;;;19.59;85.08
34586;BME280;20816;50.950;11.108;2022-10-31T12:44:03;98769.19;;;19.28;87.02
34586;BME280;20816;50.950;11.108;2022-10-31T12:46:57;98767.38;;;19.28;87.28
34586;BME280;20816;50.950;11.108;2022-10-31T12:49:38;98768.94;;;19.32;87.78
34586;BME280;20816;50.950;11.108;2022-10-31T12:59:47;98751.44;;;19.11;89.47
34586;BME280;20816;50.950;11.108;2022-10-31T13:02:18;98744.31;;;19.12;89.45
34586;BME280;20816;50.950;11.108;2022-10-31T13:04:58;98741.84;;;19.24;88.87
34586;BME280;20816;50.950;11.108;2022-10-31T13:07:36;98746.91;;;19.29;88.69
34586;BME280;20816;50.950;11.108;2022-10-31T13:12:41;98745.03;;;19.15;89.40
34586;BME280;20816;50.950;11.108;2022-10-31T13:15:16;98737.47;;;19.23;89.43
34586;BME280;20816;50.950;11.108;2022-10-31T13:18:06;98742.34;;;19.15;88.86
34586;BME280;20816;50.950;11.108;2022-10-31T13:20:41;98730.91;;;19.13;89.15
34586;BME280;20816;50.950;11.108;2022-10-31T13:26:05;98729.34;;;19.09;89.88
34586;BME280;20816;50.950;11.108;2022-10-31T13:28:43;98720.66;;;19.21;89.22
34586;BME280;20816;50.950;11.108;2022-10-31T13:31:12;98710.88;;;19.06;89.83
34586;BME280;20816;50.950;11.108;2022-10-31T13:33:44;98715.69;;;18.99;90.31
34586;BME280;20816;50.950;11.108;2022-10-31T13:36:33;98712.50;;;19.09;90.10
34586;BME280;20816;50.950;11.108;2022-10-31T13:45:17;98695.47;;;19.11;89.58
34586;BME280;20816;50.950;11.108;2022-10-31T13:47:55;98700.81;;;19.11;88.77
34586;BME280;20816;50.950;11.108;2022-10-31T13:50:24;98699.09;;;19.10;88.15
34586;BME280;20816;50.950;11.108;2022-10-31T13:52:51;98692.22;;;19.06;88.70
34586;BME280;20816;50.950;11.108;2022-10-31T13:55:38;98690.94;;;19.13;88.97
34586;BME280;20816;50.950;11.108;2022-10-31T14:00:51;98684.81;;;19.11;90.88
34586;BME280;20816;50.950;11.108;2022-10-31T14:03:24;98683.28;;;19.07;90.73
34586;BME280;20816;50.950;11.108;2022-10-31T14:06:11;98678.19;;;18.87;89.89
34586;BME280;20816;50.950;11.108;2022-10-31T14:08:48;98671.91;;;18.88;89.87
34586;BME280;20816;50.950;11.108;2022-10-31T14:11:24;98675.50;;;18.87;89.96
34586;BME280;20816;50.950;11.108;2022-10-31T14:14:01;98672.16;;;18.83;89.63
34586;BME280;20816;50.950;11.108;2022-10-31T14:16:32;98670.50;;;18.81;89.20
34586;BME280;20816;50.950;11.108;2022-10-31T14:19:07;98676.19;;;18.74;89.42
34586;BME280;20816;50.950;11.108;2022-10-31T14:21:44;98678.06;;;18.72;90.03
34586;BME280;20816;50.950;11.108;2022-10-31T14:26:55;98672.72;;;18.72;90.54
34586;BME280;20816;50.950;11.108;2022-10-31T14:29:33;98662.25;;;18.69;90.82
34586;BME280;20816;50.950;11.108;2022-10-31T14:34:53;98668.16;;;18.41;93.08
34586;BME280;20816;50.950;11.108;2022-10-31T14:43:23;98661.91;;;18.25;93.64
34586;BME280;20816;50.950;11.108;2022-10-31T14:51:21;98659.97;;;18.11;94.86
34586;BME280;20816;50.950;11.108;2022-10-31T14:53:56;98661.44;;;18.00;95.40
34586;BME280;20816;50.950;11.108;2022-10-31T14:56:35;98654.31;;;17.83;96.35
34586;BME280;20816;50.950;11.108;2022-10-31T14:59:09;98656.75;;;17.87;96.59
34586;BME280;20816;50.950;11.108;2022-10-31T15:01:39;98650.88;;;17.81;96.38
34586;BME280;20816;50.950;11.108;2022-10-31T15:04:16;98653.06;;;17.73;96.67
34586;BME280;20816;50.950;11.108;2022-10-31T15:06:54;98640.13;;;17.65;96.64
34586;BME280;20816;50.950;11.108;2022-10-31T15:09:42;98639.56;;;17.58;97.36
34586;BME280;20816;50.950;11.108;2022-10-31T15:14:48;98636.09;;;17.39;98.82
34586;BME280;20816;50.950;11.108;2022-10-31T15:17:15;98633.59;;;17.36;99.26